Flight Track Log - Related Links

Times and Time Zones

All times are in EDT time to prevent confusion due to time zone crossing. See the CTL17 flight status page for this flight to view local times or setup timezone preferences in your user account.

Time Position Orientation Groundspeed Altitude Reporting Facility
EDT Latitude Longitude Course Direction KTS MPH feet Rate Location/Type
Thu 03:53:18 PM 42.6622 -83.4492 27° Northeast 125 144 1,400  Level Cleveland Center
Thu 03:55:00 PM 42.7270 -83.4044 27° Northeast  Level FlightAware Approximate
Thu 04:02:00 PM 42.9995 -83.4761 321° Northwest  Level FlightAware Approximate
Thu 04:03:00 PM 43.0328 -83.5128 321° Northwest  Level FlightAware Approximate
Thu 04:04:00 PM 43.0660 -83.5496 321° Northwest  Level FlightAware Approximate
Thu 04:05:00 PM 43.0993 -83.5864 321° Northwest  Level FlightAware Approximate
Thu 04:06:00 PM 43.1325 -83.6232 321° Northwest  Level FlightAware Approximate
Thu 04:07:00 PM 43.1658 -83.6601 321° Northwest  Level FlightAware Approximate
Thu 04:08:00 PM 43.1990 -83.6970 321° Northwest  Level FlightAware Approximate
Thu 04:09:00 PM 43.2316 -83.7349 318° Northwest  Level FlightAware Approximate
Thu 04:10:00 PM 43.2636 -83.7739 318° Northwest  Level FlightAware Approximate
Thu 04:11:00 PM 43.2955 -83.8129 318° Northwest  Level FlightAware Approximate
Thu 04:12:00 PM 43.3275 -83.8520 318° Northwest  Level FlightAware Approximate
Thu 04:13:00 PM 43.3594 -83.8911 318° Northwest  Level FlightAware Approximate
Thu 04:14:00 PM 43.3934 -83.9267 324° Northwest  Level FlightAware Approximate
Thu 04:15:00 PM 43.4280 -83.9612 324° Northwest  Level FlightAware Approximate
Thu 04:16:00 PM 43.4626 -83.9958 324° Northwest  Level FlightAware Approximate
Thu 04:17:00 PM 43.4972 -84.0305 324° Northwest  Level FlightAware Approximate
Thu 04:18:00 PM 43.5167 -84.0667 305° West  Level FlightAware Approximate
Thu 04:19:00 PM 43.5329 -84.0796 305° West  Level Estimated
Thu 04:20:00 PM 43.5329 -84.0796 305° West  Level Estimated
Thu 04:21:00 PM 43.5329 -84.0796 305° West  Level Estimated
Thu 04:22:00 PM 43.5329 -84.0796 305° West  Level Estimated
Thu 04:23:00 PM 43.5329 -84.0796 305° West  Level Estimated
Thu 04:24:00 PM 43.5329 -84.0796 305° West  Level Estimated

Login

Don't have an account? Register now (free) for customized features, flight alerts, and more!